createdAt,value
2023-05-13T00:00:28.715Z,16.50
2023-05-13T00:02:55.598Z,16.50
2023-05-13T00:05:22.464Z,16.40
2023-05-13T00:07:49.331Z,16.40
2023-05-13T00:10:18.113Z,16.30
2023-05-13T00:12:44.836Z,16.40
2023-05-13T00:15:11.784Z,16.40
2023-05-13T00:17:38.538Z,16.40
2023-05-13T00:20:06.708Z,16.40
2023-05-13T00:22:33.498Z,16.30
2023-05-13T00:25:00.351Z,16.30
2023-05-13T00:27:27.150Z,16.30
2023-05-13T00:29:54.039Z,16.40
2023-05-13T00:32:20.909Z,16.40
2023-05-13T00:34:47.675Z,16.70
2023-05-13T00:37:14.680Z,17.00
2023-05-13T00:39:42.117Z,17.20
2023-05-13T00:42:11.393Z,17.30
2023-05-13T00:44:38.411Z,17.40
2023-05-13T00:47:05.741Z,17.40
2023-05-13T00:49:33.608Z,17.40
2023-05-13T00:52:01.554Z,17.40
2023-05-13T00:54:31.339Z,17.30
2023-05-13T00:56:59.509Z,17.20
2023-05-13T00:59:27.303Z,17.00
2023-05-13T01:02:09.758Z,16.90
2023-05-13T01:04:59.452Z,17.00
2023-05-13T01:07:26.298Z,17.00
2023-05-13T01:09:57.873Z,17.10
2023-05-13T01:12:36.001Z,17.20
2023-05-13T01:15:10.287Z,17.30
2023-05-13T01:17:55.470Z,17.40
2023-05-13T01:20:23.273Z,17.50
2023-05-13T01:22:50.727Z,17.50
2023-05-13T01:25:17.657Z,17.50
2023-05-13T01:27:44.465Z,17.50
2023-05-13T01:30:11.679Z,17.50
2023-05-13T01:32:38.773Z,17.50
2023-05-13T01:35:06.246Z,17.50
2023-05-13T01:37:33.037Z,17.50
2023-05-13T01:39:59.981Z,17.50
2023-05-13T01:42:28.261Z,17.30
2023-05-13T01:44:55.096Z,17.50
2023-05-13T01:47:22.005Z,17.50
2023-05-13T01:49:48.827Z,17.50
2023-05-13T01:52:15.707Z,17.50
2023-05-13T01:54:42.731Z,17.60
2023-05-13T01:57:09.441Z,17.50
2023-05-13T01:59:36.342Z,17.50
2023-05-13T02:02:04.231Z,17.50
2023-05-13T02:04:31.112Z,17.60
2023-05-13T02:06:57.883Z,17.60
2023-05-13T02:09:24.816Z,17.60
2023-05-13T02:11:51.626Z,17.50
2023-05-13T02:14:18.475Z,17.30
2023-05-13T02:16:45.501Z,17.20
2023-05-13T02:19:12.328Z,17.10
2023-05-13T02:21:39.213Z,17.10
2023-05-13T02:24:06.397Z,17.00
2023-05-13T02:26:33.229Z,17.10
2023-05-13T02:28:59.964Z,17.10
2023-05-13T02:31:26.943Z,17.20
2023-05-13T02:33:54.442Z,17.20
2023-05-13T02:36:21.376Z,17.20
2023-05-13T02:38:48.336Z,17.00
2023-05-13T02:41:15.115Z,17.00
2023-05-13T02:43:42.543Z,16.90
2023-05-13T02:46:09.554Z,16.90
2023-05-13T02:48:36.425Z,16.80
2023-05-13T02:51:03.168Z,16.80
2023-05-13T02:53:30.213Z,16.70
2023-05-13T02:55:57.167Z,16.60
2023-05-13T02:58:23.970Z,16.50
2023-05-13T03:00:50.827Z,16.70
2023-05-13T03:03:17.710Z,16.70
2023-05-13T03:05:44.961Z,16.50
2023-05-13T03:08:11.952Z,16.60
2023-05-13T03:10:38.822Z,16.70
2023-05-13T03:13:05.708Z,16.90
2023-05-13T03:15:32.509Z,16.90
2023-05-13T03:17:59.307Z,16.90
2023-05-13T03:20:26.156Z,16.70
2023-05-13T03:22:52.976Z,16.60
2023-05-13T03:25:19.886Z,16.60
2023-05-13T03:27:46.601Z,16.40
2023-05-13T03:30:14.169Z,16.60
2023-05-13T03:32:40.937Z,16.70
2023-05-13T03:35:08.007Z,17.00
2023-05-13T03:37:34.927Z,17.20
2023-05-13T03:40:01.881Z,17.30
2023-05-13T03:42:30.658Z,17.30
2023-05-13T03:44:57.522Z,17.20
2023-05-13T03:47:24.547Z,17.10
2023-05-13T03:49:51.325Z,17.10
2023-05-13T03:52:18.262Z,17.10
2023-05-13T03:54:45.030Z,17.10
2023-05-13T03:57:11.771Z,17.20
2023-05-13T03:59:38.608Z,17.20
2023-05-13T04:02:06.367Z,17.20
2023-05-13T04:04:33.168Z,17.20
2023-05-13T04:06:59.905Z,17.20
2023-05-13T04:09:26.929Z,17.10
2023-05-13T04:11:53.651Z,16.90
2023-05-13T04:14:20.974Z,16.80
2023-05-13T04:16:47.826Z,16.80
2023-05-13T04:19:14.652Z,16.80
2023-05-13T04:21:41.449Z,16.70
2023-05-13T04:24:08.249Z,16.80
2023-05-13T04:26:34.980Z,16.60
2023-05-13T04:29:01.868Z,16.50
2023-05-13T04:31:28.611Z,16.40
2023-05-13T04:33:55.528Z,16.40
2023-05-13T04:36:22.240Z,16.60
2023-05-13T04:38:49.022Z,16.60
2023-05-13T04:41:15.832Z,16.40
2023-05-13T04:43:42.692Z,16.30
2023-05-13T04:46:09.608Z,16.30
2023-05-13T04:48:36.672Z,16.20
2023-05-13T04:51:04.055Z,16.20
2023-05-13T04:53:31.252Z,16.20
2023-05-13T04:56:00.962Z,16.30
2023-05-13T04:58:28.350Z,16.40
2023-05-13T05:01:01.389Z,16.40
2023-05-13T05:03:28.253Z,16.30
2023-05-13T05:05:55.061Z,16.40
2023-05-13T05:08:21.754Z,16.50
2023-05-13T05:10:48.429Z,16.50
2023-05-13T05:13:15.142Z,16.50
2023-05-13T05:15:41.929Z,16.40
2023-05-13T05:18:10.222Z,16.50
2023-05-13T05:20:38.094Z,16.40
2023-05-13T05:23:04.896Z,16.40
2023-05-13T05:25:31.804Z,16.40
2023-05-13T05:27:58.509Z,16.40
2023-05-13T05:30:25.287Z,16.30
2023-05-13T05:32:52.691Z,16.40
2023-05-13T05:35:19.933Z,16.30
2023-05-13T05:37:46.780Z,16.40
2023-05-13T05:40:13.710Z,16.40
2023-05-13T05:42:40.412Z,16.40
2023-05-13T05:45:07.381Z,16.40
2023-05-13T05:47:34.306Z,16.40
2023-05-13T05:50:01.087Z,16.40
2023-05-13T05:52:27.947Z,16.30
2023-05-13T05:54:54.814Z,16.40
2023-05-13T05:57:21.755Z,16.50
2023-05-13T05:59:48.508Z,16.40
2023-05-13T06:02:16.010Z,16.60
2023-05-13T06:04:43.065Z,16.70
2023-05-13T06:07:10.101Z,16.70
2023-05-13T06:09:37.127Z,16.70
2023-05-13T06:12:03.987Z,16.70
2023-05-13T06:14:30.896Z,16.70
2023-05-13T06:16:57.673Z,16.60
2023-05-13T06:19:24.434Z,16.50
2023-05-13T06:21:51.163Z,16.50
2023-05-13T06:24:18.000Z,16.50
2023-05-13T06:26:45.297Z,16.60
2023-05-13T06:29:12.234Z,16.60
2023-05-13T06:31:39.003Z,16.60
2023-05-13T06:34:05.956Z,16.60
2023-05-13T06:36:33.210Z,16.50
2023-05-13T06:39:00.346Z,16.50
2023-05-13T06:41:27.147Z,16.40
2023-05-13T06:43:53.924Z,16.40
2023-05-13T06:46:20.909Z,16.40
2023-05-13T06:48:47.751Z,16.40
2023-05-13T06:51:14.592Z,16.40
2023-05-13T06:53:41.469Z,16.50
2023-05-13T06:56:08.169Z,16.60
2023-05-13T06:58:34.841Z,16.60
2023-05-13T07:01:02.357Z,16.60
2023-05-13T07:03:29.191Z,16.50
2023-05-13T07:05:55.957Z,16.50
2023-05-13T07:08:23.117Z,16.50
2023-05-13T07:10:49.909Z,16.50
2023-05-13T07:13:18.153Z,16.60
2023-05-13T07:15:47.390Z,16.60
2023-05-13T07:18:14.431Z,16.60
2023-05-13T07:20:41.207Z,16.60
2023-05-13T07:23:08.151Z,16.60
2023-05-13T07:25:35.009Z,16.60
2023-05-13T07:28:01.739Z,16.50
2023-05-13T07:30:28.697Z,16.60
2023-05-13T07:32:55.521Z,16.70
2023-05-13T07:35:22.519Z,16.70
2023-05-13T07:37:49.486Z,16.70
2023-05-13T07:40:16.388Z,16.70
2023-05-13T07:42:43.160Z,16.70
2023-05-13T07:45:10.346Z,16.80
2023-05-13T07:47:37.134Z,16.80
2023-05-13T07:50:04.094Z,16.90
2023-05-13T07:52:31.867Z,17.00
2023-05-13T07:54:58.561Z,17.10
2023-05-13T07:57:25.482Z,17.20
2023-05-13T07:59:53.880Z,17.40
2023-05-13T08:02:20.673Z,17.40
2023-05-13T08:04:47.493Z,17.50
2023-05-13T08:07:14.589Z,17.50
2023-05-13T08:09:41.316Z,17.50
2023-05-13T08:12:08.360Z,17.40
2023-05-13T08:14:35.937Z,17.50
2023-05-13T08:17:04.281Z,17.50
2023-05-13T08:19:31.254Z,17.50
2023-05-13T08:21:58.131Z,17.40
2023-05-13T08:24:24.900Z,17.50
2023-05-13T08:26:51.747Z,17.60
2023-05-13T08:29:18.622Z,17.70
2023-05-13T08:31:45.480Z,17.80
2023-05-13T08:34:12.483Z,17.90
2023-05-13T08:36:39.468Z,18.00
2023-05-13T08:39:07.934Z,18.00
2023-05-13T08:41:34.639Z,18.20
2023-05-13T08:44:03.360Z,18.10
2023-05-13T08:46:32.413Z,18.10
2023-05-13T08:48:59.328Z,18.10
2023-05-13T08:51:26.173Z,18.10
2023-05-13T08:53:53.622Z,18.20
2023-05-13T08:56:22.268Z,18.40
2023-05-13T08:58:49.049Z,18.50
2023-05-13T09:01:16.819Z,18.60
2023-05-13T09:03:53.025Z,18.60
2023-05-13T09:06:19.884Z,18.60
2023-05-13T09:08:46.768Z,18.60
2023-05-13T09:11:13.941Z,18.50
2023-05-13T09:13:42.593Z,18.60
2023-05-13T09:16:09.414Z,18.70
2023-05-13T09:18:36.446Z,18.70
2023-05-13T09:21:26.321Z,18.70
2023-05-13T09:24:13.365Z,18.60
2023-05-13T09:26:41.990Z,18.40
2023-05-13T09:29:18.836Z,18.20
2023-05-13T09:31:47.066Z,18.10
2023-05-13T09:34:13.948Z,18.10
2023-05-13T09:36:41.523Z,18.10
2023-05-13T09:39:08.241Z,18.10
2023-05-13T09:41:34.961Z,18.10
2023-05-13T09:44:05.246Z,18.20
2023-05-13T09:46:32.874Z,18.20
2023-05-13T09:48:59.646Z,18.20
2023-05-13T09:51:27.481Z,18.30
2023-05-13T09:53:55.019Z,18.20
2023-05-13T09:56:23.945Z,18.30
2023-05-13T09:58:53.701Z,18.40
2023-05-13T10:01:21.490Z,18.30
2023-05-13T10:03:48.744Z,18.10
2023-05-13T10:06:19.030Z,18.20
2023-05-13T10:08:47.480Z,18.20
2023-05-13T10:11:15.875Z,18.30
2023-05-13T10:13:43.641Z,18.20
2023-05-13T10:16:11.410Z,18.20
2023-05-13T10:18:38.592Z,18.30
2023-05-13T10:21:05.700Z,18.20
2023-05-13T10:23:33.093Z,18.20
2023-05-13T10:25:59.974Z,18.30
2023-05-13T10:28:28.334Z,18.40
2023-05-13T10:30:55.089Z,18.40
2023-05-13T10:33:22.142Z,18.40
2023-05-13T10:35:55.314Z,18.40
2023-05-13T10:38:33.968Z,18.50
2023-05-13T10:41:12.128Z,18.50
2023-05-13T10:43:39.129Z,18.60
2023-05-13T10:46:12.480Z,18.40
2023-05-13T10:48:43.548Z,18.30
2023-05-13T10:51:14.151Z,18.40
2023-05-13T10:53:47.133Z,18.30
2023-05-13T10:56:14.265Z,18.40
2023-05-13T10:58:41.236Z,18.40
2023-05-13T11:01:15.579Z,18.40
2023-05-13T11:03:50.103Z,18.40
2023-05-13T11:06:17.796Z,18.50
2023-05-13T11:08:45.909Z,18.40
2023-05-13T11:11:22.624Z,18.30
2023-05-13T11:13:49.780Z,18.30
2023-05-13T11:16:16.578Z,18.40
2023-05-13T11:18:43.544Z,18.60
2023-05-13T11:21:10.624Z,18.70
2023-05-13T11:23:52.639Z,18.70
2023-05-13T11:26:21.496Z,18.60
2023-05-13T11:28:58.783Z,18.70
2023-05-13T11:31:26.686Z,18.50
2023-05-13T11:34:05.801Z,18.50
2023-05-13T11:36:33.788Z,18.50
2023-05-13T11:39:07.427Z,18.60
2023-05-13T11:41:34.429Z,18.70
2023-05-13T11:44:03.332Z,18.70
2023-05-13T11:46:30.458Z,18.60
2023-05-13T11:48:57.278Z,18.70
2023-05-13T11:51:25.345Z,18.70
2023-05-13T11:53:55.157Z,18.70
2023-05-13T11:56:26.034Z,18.80
2023-05-13T11:58:53.408Z,18.70
2023-05-13T12:01:21.300Z,18.70
2023-05-13T12:03:48.174Z,18.70
2023-05-13T12:06:15.857Z,18.50
2023-05-13T12:08:46.334Z,18.50
2023-05-13T12:11:13.453Z,18.50
2023-05-13T12:13:41.524Z,18.60
2023-05-13T12:16:08.789Z,18.70
2023-05-13T12:18:37.244Z,18.70
2023-05-13T12:21:13.864Z,18.60
2023-05-13T12:23:43.256Z,18.70
2023-05-13T12:26:10.878Z,18.80
2023-05-13T12:28:37.864Z,18.70
2023-05-13T12:31:05.871Z,18.80
2023-05-13T12:33:50.781Z,18.90
2023-05-13T12:36:20.455Z,19.00
2023-05-13T12:38:59.832Z,19.00
2023-05-13T12:41:31.074Z,19.00
2023-05-13T12:43:58.934Z,19.10
2023-05-13T12:46:25.914Z,19.10
2023-05-13T12:48:54.879Z,19.20
2023-05-13T12:51:21.742Z,19.10
2023-05-13T12:53:48.518Z,19.00
2023-05-13T12:56:15.248Z,19.00
2023-05-13T12:58:42.078Z,19.00
2023-05-13T13:01:08.842Z,19.00
2023-05-13T13:03:35.789Z,19.00
2023-05-13T13:06:02.612Z,19.00
2023-05-13T13:08:30.536Z,19.20
2023-05-13T13:10:59.077Z,19.10
2023-05-13T13:13:26.076Z,19.10
2023-05-13T13:15:52.890Z,19.10
2023-05-13T13:18:19.692Z,19.00
2023-05-13T13:20:46.849Z,19.00
2023-05-13T13:23:13.744Z,19.20
2023-05-13T13:25:40.769Z,19.20
2023-05-13T13:28:07.517Z,19.20
2023-05-13T13:30:34.346Z,19.00
2023-05-13T13:33:01.135Z,19.10
2023-05-13T13:35:28.089Z,19.10
2023-05-13T13:37:55.524Z,19.00
2023-05-13T13:40:22.602Z,19.00
2023-05-13T13:42:49.874Z,19.00
2023-05-13T13:45:16.914Z,19.00
2023-05-13T13:47:43.839Z,18.80
2023-05-13T13:50:11.194Z,19.00
2023-05-13T13:52:37.977Z,19.00
2023-05-13T13:55:04.904Z,19.00
2023-05-13T13:57:31.756Z,19.00
2023-05-13T13:59:58.561Z,19.00
2023-05-13T14:02:25.497Z,19.00
2023-05-13T14:04:52.771Z,19.00
2023-05-13T14:07:20.055Z,18.90
2023-05-13T14:09:47.175Z,18.80
2023-05-13T14:12:14.190Z,18.80
2023-05-13T14:14:40.981Z,18.80
2023-05-13T14:17:07.843Z,18.80
2023-05-13T14:19:34.733Z,18.90
2023-05-13T14:22:01.470Z,18.90
2023-05-13T14:24:28.350Z,18.80
2023-05-13T14:26:55.363Z,18.70
2023-05-13T14:29:22.237Z,18.70
2023-05-13T14:31:49.374Z,18.70
2023-05-13T14:34:16.650Z,18.70
2023-05-13T14:36:43.591Z,18.80
2023-05-13T14:39:10.903Z,18.80
2023-05-13T14:41:37.783Z,18.70
2023-05-13T14:44:04.773Z,18.70
2023-05-13T14:46:33.908Z,18.60
2023-05-13T14:49:00.904Z,18.70
2023-05-13T14:51:27.832Z,18.60
2023-05-13T14:53:54.498Z,18.70
2023-05-13T14:56:21.501Z,18.80
2023-05-13T14:58:48.325Z,18.70
2023-05-13T15:01:15.225Z,18.80
2023-05-13T15:03:42.203Z,18.70
2023-05-13T15:06:09.012Z,18.50
2023-05-13T15:08:36.654Z,18.10
2023-05-13T15:11:03.696Z,18.00
2023-05-13T15:13:35.199Z,17.80
2023-05-13T15:16:02.718Z,17.60
2023-05-13T15:18:29.879Z,17.60
2023-05-13T15:20:56.576Z,17.40
2023-05-13T15:23:23.448Z,17.30
2023-05-13T15:25:50.854Z,17.20
2023-05-13T15:28:17.633Z,17.20
2023-05-13T15:30:44.398Z,17.00
2023-05-13T15:33:11.234Z,17.10
2023-05-13T15:35:38.854Z,17.10
2023-05-13T15:38:11.773Z,17.10
2023-05-13T15:40:38.822Z,17.00
2023-05-13T15:43:05.525Z,17.00
2023-05-13T15:45:32.375Z,16.90
2023-05-13T15:47:59.138Z,16.90
2023-05-13T15:50:26.193Z,16.90
2023-05-13T15:52:54.737Z,17.00
2023-05-13T15:55:21.821Z,17.00
2023-05-13T15:57:50.269Z,17.00
2023-05-13T16:00:17.968Z,17.00
2023-05-13T16:02:44.837Z,16.90
2023-05-13T16:05:15.735Z,16.90
2023-05-13T16:07:42.966Z,17.00
2023-05-13T16:10:10.878Z,17.00
2023-05-13T16:12:37.887Z,17.10
2023-05-13T16:15:05.273Z,17.10
2023-05-13T16:17:33.555Z,17.10
2023-05-13T16:20:01.546Z,17.10
2023-05-13T16:22:31.444Z,17.10
2023-05-13T16:25:00.135Z,17.10
2023-05-13T16:27:27.648Z,17.20
2023-05-13T16:29:56.257Z,17.20
2023-05-13T16:32:23.993Z,17.20
2023-05-13T16:34:52.520Z,17.20
2023-05-13T16:37:20.761Z,17.10
2023-05-13T16:39:48.186Z,17.20
2023-05-13T16:42:14.983Z,17.30
2023-05-13T16:44:41.871Z,17.40
2023-05-13T16:47:09.212Z,17.40
2023-05-13T16:49:36.278Z,17.50
2023-05-13T16:52:03.586Z,17.50
2023-05-13T16:54:30.296Z,17.50
2023-05-13T16:56:57.407Z,17.50
2023-05-13T16:59:25.237Z,17.50
2023-05-13T17:01:52.632Z,17.50
2023-05-13T17:04:19.860Z,17.50
2023-05-13T17:06:46.615Z,17.50
2023-05-13T17:09:13.426Z,17.50
2023-05-13T17:11:40.176Z,17.50
2023-05-13T17:14:07.389Z,17.60
2023-05-13T17:16:34.545Z,17.70
2023-05-13T17:19:01.684Z,17.70
2023-05-13T17:21:28.651Z,17.70
2023-05-13T17:23:55.475Z,17.80
2023-05-13T17:26:22.309Z,17.80
2023-05-13T17:28:49.738Z,17.60
2023-05-13T17:31:17.049Z,17.50
2023-05-13T17:33:43.902Z,17.40
2023-05-13T17:36:11.052Z,17.40
2023-05-13T17:38:37.882Z,17.30
2023-05-13T17:41:04.933Z,17.40
2023-05-13T17:43:32.087Z,17.40
2023-05-13T17:45:58.940Z,17.40
2023-05-13T17:48:26.649Z,17.50
2023-05-13T17:50:53.721Z,17.50
2023-05-13T17:53:21.198Z,17.50
2023-05-13T17:55:48.748Z,17.60
2023-05-13T17:58:16.106Z,17.80
2023-05-13T18:00:43.046Z,17.80
2023-05-13T18:03:09.849Z,17.80
2023-05-13T18:05:36.786Z,17.60
2023-05-13T18:08:03.668Z,17.70
2023-05-13T18:10:30.425Z,17.80
2023-05-13T18:12:57.448Z,17.80
2023-05-13T18:15:24.160Z,17.70
2023-05-13T18:17:51.055Z,17.70
2023-05-13T18:20:18.073Z,17.70
2023-05-13T18:22:44.834Z,17.70
2023-05-13T18:25:11.638Z,17.50
2023-05-13T18:27:38.531Z,17.50
2023-05-13T18:30:06.488Z,17.60
2023-05-13T18:32:33.391Z,17.60
2023-05-13T18:35:00.301Z,17.70
2023-05-13T18:37:27.124Z,17.70
2023-05-13T18:39:53.776Z,17.70
2023-05-13T18:42:21.064Z,17.70
2023-05-13T18:44:47.765Z,17.70
2023-05-13T18:47:14.476Z,17.70
2023-05-13T18:49:41.348Z,17.70
2023-05-13T18:52:08.059Z,17.70
2023-05-13T18:54:36.215Z,17.70
2023-05-13T18:57:03.215Z,17.70
2023-05-13T18:59:29.923Z,17.70
2023-05-13T19:01:57.361Z,17.70
2023-05-13T19:04:24.458Z,17.70
2023-05-13T19:06:51.639Z,17.70
2023-05-13T19:09:18.379Z,17.60
2023-05-13T19:11:45.228Z,17.70
2023-05-13T19:14:11.900Z,17.60
2023-05-13T19:16:38.762Z,17.60
2023-05-13T19:19:05.733Z,17.60
2023-05-13T19:21:33.293Z,17.60
2023-05-13T19:24:02.009Z,17.60
2023-05-13T19:26:29.185Z,17.60
2023-05-13T19:28:56.392Z,17.70
2023-05-13T19:31:24.200Z,17.60
2023-05-13T19:33:51.167Z,17.60
2023-05-13T19:36:17.917Z,17.60
2023-05-13T19:38:44.741Z,17.70
2023-05-13T19:41:11.585Z,17.70
2023-05-13T19:43:38.361Z,17.70
2023-05-13T19:46:05.169Z,17.70
2023-05-13T19:48:32.024Z,17.70
2023-05-13T19:50:58.932Z,17.70
2023-05-13T19:53:26.159Z,17.60
2023-05-13T19:55:53.029Z,17.60
2023-05-13T19:58:19.792Z,17.70
2023-05-13T20:00:46.520Z,17.70
2023-05-13T20:03:13.831Z,17.60
2023-05-13T20:05:41.293Z,17.40
2023-05-13T20:08:08.069Z,17.30
2023-05-13T20:10:37.722Z,17.30
2023-05-13T20:13:04.863Z,17.30
2023-05-13T20:15:32.186Z,17.20
2023-05-13T20:17:59.123Z,17.20
2023-05-13T20:20:26.017Z,17.10
2023-05-13T20:22:52.715Z,17.10
2023-05-13T20:25:19.553Z,17.00
2023-05-13T20:27:46.256Z,17.00
2023-05-13T20:30:13.204Z,17.00
2023-05-13T20:32:40.457Z,17.10
2023-05-13T20:35:07.626Z,17.00
2023-05-13T20:37:34.542Z,17.00
2023-05-13T20:40:01.418Z,17.10
2023-05-13T20:42:28.189Z,17.00
2023-05-13T20:44:54.924Z,17.10
2023-05-13T20:47:21.912Z,17.00
2023-05-13T20:49:48.704Z,16.90
2023-05-13T20:52:15.616Z,16.80
2023-05-13T20:54:42.465Z,16.90
2023-05-13T20:57:09.740Z,16.80
2023-05-13T20:59:36.725Z,16.80
2023-05-13T21:02:03.683Z,16.80
2023-05-13T21:04:31.136Z,16.80
2023-05-13T21:06:57.944Z,16.70
2023-05-13T21:09:24.750Z,16.80
2023-05-13T21:11:51.464Z,16.90
2023-05-13T21:14:18.197Z,16.90
2023-05-13T21:16:45.189Z,17.00
2023-05-13T21:19:19.071Z,16.90
2023-05-13T21:21:45.869Z,17.00
2023-05-13T21:24:13.118Z,17.10
2023-05-13T21:26:39.829Z,17.30
2023-05-13T21:29:06.596Z,17.30
2023-05-13T21:31:33.497Z,17.40
2023-05-13T21:34:00.323Z,17.30
2023-05-13T21:36:27.135Z,17.40
2023-05-13T21:38:54.288Z,17.40
2023-05-13T21:41:22.048Z,17.40
2023-05-13T21:43:48.831Z,17.30
2023-05-13T21:46:15.652Z,17.30
2023-05-13T21:48:42.375Z,17.40
2023-05-13T21:51:09.205Z,17.40
2023-05-13T21:53:36.080Z,17.40
2023-05-13T21:56:03.173Z,17.40
2023-05-13T21:58:30.037Z,17.50
2023-05-13T22:00:57.001Z,17.50
2023-05-13T22:03:23.861Z,17.40
2023-05-13T22:05:50.775Z,17.40
2023-05-13T22:08:17.528Z,17.40
2023-05-13T22:10:44.212Z,17.40
2023-05-13T22:13:11.125Z,17.40
2023-05-13T22:15:37.950Z,17.50
2023-05-13T22:18:04.886Z,17.50
2023-05-13T22:20:31.988Z,17.40
2023-05-13T22:22:58.927Z,17.40
2023-05-13T22:25:25.917Z,17.20
2023-05-13T22:27:52.841Z,17.20
2023-05-13T22:30:19.889Z,17.20
2023-05-13T22:32:46.657Z,17.20
2023-05-13T22:35:13.795Z,17.30
2023-05-13T22:37:40.688Z,17.40
2023-05-13T22:40:07.745Z,17.40
2023-05-13T22:42:34.688Z,17.40
2023-05-13T22:45:01.496Z,17.40
2023-05-13T22:47:28.350Z,17.40
2023-05-13T22:49:55.391Z,17.40
2023-05-13T22:52:22.104Z,17.40
2023-05-13T22:54:48.955Z,17.50
2023-05-13T22:57:15.720Z,17.50
2023-05-13T22:59:42.460Z,17.40
2023-05-13T23:02:09.185Z,17.50
2023-05-13T23:04:36.093Z,17.40
2023-05-13T23:07:02.869Z,17.50
2023-05-13T23:09:29.745Z,17.50
2023-05-13T23:11:57.319Z,17.50
2023-05-13T23:14:25.325Z,17.40
2023-05-13T23:16:52.167Z,17.50
2023-05-13T23:19:19.027Z,17.50
2023-05-13T23:21:45.914Z,17.50
2023-05-13T23:24:12.630Z,17.40
2023-05-13T23:26:39.632Z,17.50
2023-05-13T23:29:06.358Z,17.50
2023-05-13T23:31:33.179Z,17.40
2023-05-13T23:34:00.106Z,17.50
2023-05-13T23:36:26.847Z,17.40
2023-05-13T23:38:53.712Z,17.50
2023-05-13T23:41:21.989Z,17.50
2023-05-13T23:43:48.846Z,17.50
2023-05-13T23:46:15.624Z,17.40
2023-05-13T23:48:42.638Z,17.40
2023-05-13T23:51:09.340Z,17.40
2023-05-13T23:53:36.035Z,17.50
2023-05-13T23:56:02.771Z,17.50
2023-05-13T23:58:29.568Z,17.50
